createdAt,value
2022-08-12T00:04:59.626Z,7.03
2022-08-12T00:10:09.755Z,7.77
2022-08-12T00:15:21.430Z,9.50
2022-08-12T00:20:31.282Z,5.50
2022-08-12T00:26:00.545Z,7.40
2022-08-12T00:31:13.000Z,6.67
2022-08-12T00:36:32.430Z,6.07
2022-08-12T00:41:46.483Z,5.23
2022-08-12T00:46:45.286Z,4.97
2022-08-12T00:51:56.526Z,9.90
2022-08-12T00:56:50.066Z,6.57
2022-08-12T01:02:11.786Z,9.00
2022-08-12T01:07:16.904Z,7.33
2022-08-12T01:12:10.415Z,6.73
2022-08-12T01:17:04.523Z,6.47
2022-08-12T01:22:16.398Z,7.90
2022-08-12T01:27:12.590Z,8.53
2022-08-12T01:32:06.279Z,9.27
2022-08-12T01:36:59.570Z,8.37
2022-08-12T01:41:54.007Z,6.50
2022-08-12T01:46:53.406Z,6.40
2022-08-12T01:52:20.828Z,7.43
2022-08-12T01:57:06.592Z,6.10
2022-08-12T02:02:03.514Z,6.07
2022-08-12T02:07:15.406Z,5.00
2022-08-12T02:12:12.708Z,9.93
2022-08-12T02:17:12.169Z,7.20
2022-08-12T02:22:10.914Z,10.57
2022-08-12T02:27:04.429Z,6.87
2022-08-12T02:31:59.181Z,10.53
2022-08-12T02:36:54.596Z,8.80
2022-08-12T02:41:48.580Z,11.83
2022-08-12T02:46:42.327Z,7.60
2022-08-12T02:51:35.700Z,6.00
2022-08-12T02:56:30.769Z,6.73
2022-08-12T03:01:28.579Z,7.13
2022-08-12T03:06:22.743Z,7.30
2022-08-12T03:11:17.732Z,9.30
2022-08-12T03:16:11.830Z,7.60
2022-08-12T03:21:04.603Z,6.70
2022-08-12T03:25:58.827Z,10.07
2022-08-12T03:30:56.688Z,9.57
2022-08-12T03:35:51.026Z,11.27
2022-08-12T03:41:09.075Z,10.30
2022-08-12T03:46:20.704Z,6.40
2022-08-12T03:51:32.289Z,8.10
2022-08-12T03:56:42.223Z,9.60
2022-08-12T04:01:40.766Z,9.43
2022-08-12T04:06:36.043Z,9.90
2022-08-12T04:11:47.210Z,10.90
2022-08-12T04:16:40.020Z,10.50
2022-08-12T04:21:33.725Z,11.30
2022-08-12T04:26:28.310Z,9.30
2022-08-12T04:31:20.841Z,11.00
2022-08-12T04:36:13.367Z,11.13
2022-08-12T04:41:06.371Z,10.20
2022-08-12T04:46:01.162Z,10.10
2022-08-12T04:50:53.744Z,9.77
2022-08-12T04:55:47.630Z,11.13
2022-08-12T05:00:40.337Z,12.77
2022-08-12T05:05:36.335Z,9.10
2022-08-12T05:10:33.418Z,8.50
2022-08-12T05:15:29.625Z,8.47
2022-08-12T05:20:22.998Z,9.47
2022-08-12T05:25:18.480Z,11.73
2022-08-12T05:30:12.560Z,9.67
2022-08-12T05:35:06.615Z,11.33
2022-08-12T05:39:59.835Z,11.63
2022-08-12T05:44:53.766Z,10.53
2022-08-12T05:49:46.284Z,11.23
2022-08-12T05:54:57.091Z,10.60
2022-08-12T05:59:50.437Z,7.90
2022-08-12T06:04:45.237Z,12.07
2022-08-12T06:09:37.743Z,11.10
2022-08-12T06:14:35.121Z,6.33
2022-08-12T06:20:22.846Z,7.53
2022-08-12T06:24:43.524Z,10.97
2022-08-12T06:30:07.032Z,13.07
2022-08-12T06:35:26.731Z,12.03
2022-08-12T06:40:04.081Z,7.60
2022-08-12T06:44:56.817Z,8.00
2022-08-12T06:49:50.125Z,10.23
2022-08-12T06:54:45.809Z,7.03
2022-08-12T06:59:41.248Z,10.23
2022-08-12T07:04:37.913Z,6.50
2022-08-12T07:10:01.581Z,8.97
2022-08-12T07:14:48.799Z,7.33
2022-08-12T07:19:45.378Z,11.40
2022-08-12T07:24:38.237Z,7.40
2022-08-12T07:30:04.273Z,12.03
2022-08-12T07:34:44.579Z,7.00
2022-08-12T07:39:37.234Z,7.20
2022-08-12T07:44:44.373Z,9.23
2022-08-12T07:50:05.149Z,7.13
2022-08-12T07:54:50.691Z,6.20
2022-08-12T07:59:43.219Z,13.57
2022-08-12T08:04:53.420Z,7.20
2022-08-12T08:09:45.921Z,5.37
2022-08-12T08:14:40.543Z,8.27
2022-08-12T08:19:33.638Z,7.20
2022-08-12T08:24:47.138Z,7.03
2022-08-12T08:29:41.097Z,8.83
2022-08-12T08:34:53.865Z,12.33
2022-08-12T08:39:47.321Z,4.30
2022-08-12T08:44:41.418Z,6.97
2022-08-12T08:49:37.261Z,6.37
2022-08-12T08:54:33.468Z,4.77
2022-08-12T08:59:25.973Z,5.23
2022-08-12T09:10:01.905Z,7.87
2022-08-12T09:14:51.359Z,7.17
2022-08-12T09:19:45.507Z,4.10
2022-08-12T09:24:39.919Z,3.83
2022-08-12T09:30:10.445Z,3.43
2022-08-12T09:34:50.759Z,5.60
2022-08-12T09:40:06.323Z,4.67
2022-08-12T09:45:18.857Z,12.03
2022-08-12T09:50:20.313Z,3.10
2022-08-12T09:55:59.449Z,3.53
2022-08-12T10:00:28.890Z,4.50
2022-08-12T10:06:20.550Z,3.50
2022-08-12T10:11:01.115Z,5.40
2022-08-12T10:16:03.076Z,5.63
2022-08-12T10:20:59.671Z,3.73
2022-08-12T10:26:34.178Z,4.20
2022-08-12T10:31:23.867Z,3.73
2022-08-12T10:36:19.897Z,4.60
2022-08-12T10:41:58.146Z,5.40
2022-08-12T10:46:45.886Z,4.73
2022-08-12T10:52:03.292Z,4.80
2022-08-12T10:56:57.734Z,3.00
2022-08-12T11:04:19.711Z,3.40
2022-08-12T11:08:36.244Z,9.20
2022-08-12T11:12:57.977Z,6.23
2022-08-12T11:17:43.861Z,3.27
2022-08-12T11:22:58.739Z,3.93
2022-08-12T11:27:51.772Z,6.60
2022-08-12T11:32:44.304Z,5.07
2022-08-12T11:37:58.168Z,3.63
2022-08-12T11:42:53.363Z,7.27
2022-08-12T11:47:45.887Z,3.40
2022-08-12T11:52:55.639Z,4.53
2022-08-12T11:58:19.731Z,7.80
2022-08-12T12:03:04.462Z,4.40
2022-08-12T12:08:40.703Z,3.17
2022-08-12T12:13:11.878Z,5.43
2022-08-12T12:18:31.035Z,2.90
2022-08-12T12:23:28.983Z,3.87
2022-08-12T12:28:37.835Z,4.07
2022-08-12T12:33:57.748Z,3.57
2022-08-12T12:38:45.801Z,4.63
2022-08-12T12:43:43.279Z,4.03
2022-08-12T12:48:44.064Z,3.73
2022-08-12T12:54:06.412Z,3.13
2022-08-12T12:58:51.591Z,3.90
2022-08-12T13:03:49.081Z,4.23
2022-08-12T13:08:43.223Z,3.23
2022-08-12T13:14:10.466Z,7.20
2022-08-12T13:18:54.261Z,9.33
2022-08-12T13:23:50.303Z,6.43
2022-08-12T13:28:46.460Z,4.03
2022-08-12T13:34:31.902Z,4.70
2022-08-12T13:39:05.428Z,3.30
2022-08-12T13:44:00.151Z,5.20
2022-08-12T13:48:54.247Z,3.33
2022-08-12T13:53:57.605Z,5.93
2022-08-12T13:58:53.336Z,7.07
2022-08-12T14:03:50.476Z,3.17
2022-08-12T14:08:44.135Z,4.70
2022-08-12T14:14:04.888Z,4.10
2022-08-12T14:18:53.502Z,5.03
2022-08-12T14:24:04.792Z,3.93
2022-08-12T14:29:02.007Z,4.17
2022-08-12T14:33:59.288Z,2.90
2022-08-12T14:38:55.893Z,3.20
2022-08-12T14:44:04.826Z,3.83
2022-08-12T14:49:27.444Z,3.83
2022-08-12T14:59:57.274Z,5.00
2022-08-12T15:04:59.069Z,3.00
2022-08-12T15:09:51.979Z,6.63
2022-08-12T15:14:45.713Z,4.00
2022-08-12T15:20:27.845Z,3.37
2022-08-12T15:24:53.173Z,3.33
2022-08-12T15:29:45.717Z,4.60
2022-08-12T15:34:44.857Z,6.20
2022-08-12T15:40:00.887Z,4.80
2022-08-12T15:44:56.228Z,5.47
2022-08-12T15:49:59.688Z,3.80
2022-08-12T15:54:53.857Z,3.63
2022-08-12T16:00:03.897Z,6.73
2022-08-12T16:06:10.307Z,4.60
2022-08-12T16:10:21.242Z,3.43
2022-08-12T16:15:24.869Z,3.93
2022-08-12T16:20:22.030Z,3.67
2022-08-12T16:25:51.546Z,4.27
2022-08-12T16:30:41.156Z,6.90
2022-08-12T16:35:44.796Z,3.53
2022-08-12T16:40:46.226Z,5.10
2022-08-12T16:46:23.332Z,3.43
2022-08-12T16:50:53.604Z,4.03
2022-08-12T16:55:50.736Z,3.83
2022-08-12T17:00:48.175Z,3.57
2022-08-12T17:05:41.209Z,3.80
2022-08-12T17:10:37.221Z,3.63
2022-08-12T17:15:50.537Z,3.93
2022-08-12T17:20:46.780Z,3.10
2022-08-12T17:25:41.431Z,5.90
2022-08-12T17:30:35.376Z,5.43
2022-08-12T17:35:37.055Z,3.43
2022-08-12T17:40:36.419Z,3.03
2022-08-12T17:45:31.559Z,4.50
2022-08-12T17:50:26.989Z,3.70
2022-08-12T17:55:43.295Z,4.10
2022-08-12T18:00:41.761Z,6.43
2022-08-12T18:05:55.793Z,3.70
2022-08-12T18:11:11.888Z,4.77
2022-08-12T18:16:10.126Z,3.70
2022-08-12T18:21:07.516Z,5.67
2022-08-12T18:26:18.069Z,3.70
2022-08-12T18:31:13.439Z,4.63
2022-08-12T18:36:13.133Z,7.50
2022-08-12T18:41:23.829Z,4.13
2022-08-12T18:46:18.126Z,4.63
2022-08-12T18:51:17.225Z,7.87
2022-08-12T18:56:33.177Z,4.63
2022-08-12T19:02:19.804Z,3.70
2022-08-12T19:06:41.097Z,5.03
2022-08-12T19:11:57.237Z,4.63
2022-08-12T19:16:52.510Z,3.40
2022-08-12T19:21:56.437Z,4.40
2022-08-12T19:26:49.908Z,3.87
2022-08-12T19:31:58.072Z,4.37
2022-08-12T19:36:52.954Z,7.37
2022-08-12T19:42:00.863Z,4.77
2022-08-12T19:46:54.367Z,7.83
2022-08-12T19:51:49.491Z,4.40
2022-08-12T19:56:43.778Z,4.60
2022-08-12T20:02:01.576Z,2.90
2022-08-12T20:06:51.626Z,8.23
2022-08-12T20:12:13.334Z,7.00
2022-08-12T20:17:03.536Z,5.20
2022-08-12T20:21:58.117Z,3.87
2022-08-12T20:26:54.485Z,4.03
2022-08-12T20:31:48.012Z,4.40
2022-08-12T20:36:45.255Z,4.50
2022-08-12T20:41:38.696Z,4.53
2022-08-12T20:46:33.792Z,2.93
2022-08-12T20:51:27.676Z,4.60
2022-08-12T20:56:30.848Z,4.53
2022-08-12T21:01:36.634Z,4.20
2022-08-12T21:06:56.277Z,4.37
2022-08-12T21:11:50.450Z,6.63
2022-08-12T21:16:43.728Z,6.80
2022-08-12T21:21:50.579Z,3.20
2022-08-12T21:26:43.232Z,6.60
2022-08-12T21:32:36.385Z,5.13
2022-08-12T21:37:13.046Z,6.27
2022-08-12T21:42:14.238Z,4.60
2022-08-12T21:47:19.818Z,4.00
2022-08-12T21:52:15.725Z,6.20
2022-08-12T21:57:09.681Z,6.33
2022-08-12T22:02:02.181Z,6.80
2022-08-12T22:06:54.967Z,6.90
2022-08-12T22:11:58.719Z,5.67
2022-08-12T22:16:53.145Z,6.80
2022-08-12T22:21:48.225Z,6.10
2022-08-12T22:26:45.090Z,6.13
2022-08-12T22:31:39.090Z,4.37
2022-08-12T22:36:33.199Z,3.70
2022-08-12T22:41:44.121Z,4.73
2022-08-12T22:46:57.708Z,4.17
2022-08-12T22:52:00.583Z,7.43
2022-08-12T22:56:55.450Z,3.77
2022-08-12T23:02:00.895Z,4.10
2022-08-12T23:06:56.080Z,3.80
2022-08-12T23:11:49.784Z,4.37
2022-08-12T23:16:42.688Z,4.40
2022-08-12T23:22:04.344Z,5.83
2022-08-12T23:27:07.680Z,4.00
2022-08-12T23:32:03.400Z,3.53
2022-08-12T23:36:59.602Z,10.83
2022-08-12T23:42:17.784Z,4.03
2022-08-12T23:47:09.792Z,3.60
2022-08-12T23:52:07.149Z,3.47
2022-08-12T23:57:10.781Z,3.43
